sensor_id;sensor_type;location;lat;lon;timestamp;P1;durP1;ratioP1;P2;durP2;ratioP2
55015;SDS011;40919;43.236;21.590;2022-09-20T00:00:06;8.38;;;5.10;;
55015;SDS011;40919;43.236;21.590;2022-09-20T00:02:32;6.85;;;4.72;;
55015;SDS011;40919;43.236;21.590;2022-09-20T00:04:58;7.70;;;4.95;;
55015;SDS011;40919;43.236;21.590;2022-09-20T00:07:24;7.43;;;4.78;;
55015;SDS011;40919;43.236;21.590;2022-09-20T00:09:49;6.63;;;4.60;;
55015;SDS011;40919;43.236;21.590;2022-09-20T00:12:15;7.93;;;4.63;;
55015;SDS011;40919;43.236;21.590;2022-09-20T00:14:41;6.63;;;4.40;;
55015;SDS011;40919;43.236;21.590;2022-09-20T00:17:07;8.90;;;5.45;;
55015;SDS011;40919;43.236;21.590;2022-09-20T00:19:32;9.38;;;5.53;;
55015;SDS011;40919;43.236;21.590;2022-09-20T00:21:58;9.80;;;5.95;;
55015;SDS011;40919;43.236;21.590;2022-09-20T00:24:24;10.27;;;6.45;;
55015;SDS011;40919;43.236;21.590;2022-09-20T00:26:50;11.82;;;6.03;;
55015;SDS011;40919;43.236;21.590;2022-09-20T00:29:15;15.70;;;6.22;;
55015;SDS011;40919;43.236;21.590;2022-09-20T00:31:41;9.73;;;5.95;;
55015;SDS011;40919;43.236;21.590;2022-09-20T00:34:08;12.48;;;6.75;;
55015;SDS011;40919;43.236;21.590;2022-09-20T00:36:53;13.85;;;7.25;;
55015;SDS011;40919;43.236;21.590;2022-09-20T00:39:19;15.30;;;8.50;;
55015;SDS011;40919;43.236;21.590;2022-09-20T00:41:44;15.93;;;10.02;;
55015;SDS011;40919;43.236;21.590;2022-09-20T00:47:09;22.77;;;11.68;;
55015;SDS011;40919;43.236;21.590;2022-09-20T00:49:40;16.13;;;9.35;;
55015;SDS011;40919;43.236;21.590;2022-09-20T00:52:06;15.70;;;8.85;;
55015;SDS011;40919;43.236;21.590;2022-09-20T00:54:32;18.35;;;10.05;;
55015;SDS011;40919;43.236;21.590;2022-09-20T00:56:59;16.83;;;9.15;;
55015;SDS011;40919;43.236;21.590;2022-09-20T00:59:32;18.48;;;9.13;;
55015;SDS011;40919;43.236;21.590;2022-09-20T01:04:37;16.50;;;9.02;;
55015;SDS011;40919;43.236;21.590;2022-09-20T01:07:04;21.35;;;12.70;;
55015;SDS011;40919;43.236;21.590;2022-09-20T01:09:32;14.30;;;7.68;;
55015;SDS011;40919;43.236;21.590;2022-09-20T01:11:58;13.88;;;7.70;;
55015;SDS011;40919;43.236;21.590;2022-09-20T01:14:29;15.10;;;9.10;;
55015;SDS011;40919;43.236;21.590;2022-09-20T01:16:56;18.52;;;9.88;;
55015;SDS011;40919;43.236;21.590;2022-09-20T01:19:50;18.42;;;8.80;;
55015;SDS011;40919;43.236;21.590;2022-09-20T01:25:09;13.68;;;7.13;;
55015;SDS011;40919;43.236;21.590;2022-09-20T01:30:12;11.77;;;7.82;;
55015;SDS011;40919;43.236;21.590;2022-09-20T01:33:02;14.45;;;8.73;;
55015;SDS011;40919;43.236;21.590;2022-09-20T01:35:38;16.77;;;10.77;;
55015;SDS011;40919;43.236;21.590;2022-09-20T01:41:10;15.07;;;8.70;;
55015;SDS011;40919;43.236;21.590;2022-09-20T01:46:32;17.52;;;9.90;;
55015;SDS011;40919;43.236;21.590;2022-09-20T01:49:25;17.13;;;9.82;;
55015;SDS011;40919;43.236;21.590;2022-09-20T02:03:45;9.02;;;5.40;;
55015;SDS011;40919;43.236;21.590;2022-09-20T02:14:31;7.18;;;4.85;;
55015;SDS011;40919;43.236;21.590;2022-09-20T02:20:02;8.30;;;4.60;;
55015;SDS011;40919;43.236;21.590;2022-09-20T02:23:09;9.48;;;5.22;;
55015;SDS011;40919;43.236;21.590;2022-09-20T02:28:53;14.05;;;6.85;;
55015;SDS011;40919;43.236;21.590;2022-09-20T02:37:33;12.35;;;6.90;;
55015;SDS011;40919;43.236;21.590;2022-09-20T02:40:23;14.18;;;6.68;;
55015;SDS011;40919;43.236;21.590;2022-09-20T02:43:24;15.25;;;7.45;;
55015;SDS011;40919;43.236;21.590;2022-09-20T02:49:06;12.70;;;6.97;;
55015;SDS011;40919;43.236;21.590;2022-09-20T02:54:28;15.20;;;8.32;;
55015;SDS011;40919;43.236;21.590;2022-09-20T02:57:20;11.02;;;7.32;;
55015;SDS011;40919;43.236;21.590;2022-09-20T02:59:52;14.82;;;7.00;;
55015;SDS011;40919;43.236;21.590;2022-09-20T03:02:26;14.35;;;7.18;;
55015;SDS011;40919;43.236;21.590;2022-09-20T03:05:06;17.70;;;7.78;;
55015;SDS011;40919;43.236;21.590;2022-09-20T03:19:59;9.52;;;6.93;;
55015;SDS011;40919;43.236;21.590;2022-09-20T03:31:02;10.98;;;6.38;;
55015;SDS011;40919;43.236;21.590;2022-09-20T03:50:06;10.45;;;6.82;;
55015;SDS011;40919;43.236;21.590;2022-09-20T04:11:26;14.50;;;5.07;;
55015;SDS011;40919;43.236;21.590;2022-09-20T04:14:05;6.60;;;4.78;;
55015;SDS011;40919;43.236;21.590;2022-09-20T04:16:54;8.88;;;5.30;;
55015;SDS011;40919;43.236;21.590;2022-09-20T04:19:49;6.57;;;4.72;;
55015;SDS011;40919;43.236;21.590;2022-09-20T04:22:27;6.30;;;3.92;;
55015;SDS011;40919;43.236;21.590;2022-09-20T04:25:04;6.03;;;4.32;;
55015;SDS011;40919;43.236;21.590;2022-09-20T04:27:50;7.18;;;5.05;;
55015;SDS011;40919;43.236;21.590;2022-09-20T04:30:24;8.40;;;5.88;;
55015;SDS011;40919;43.236;21.590;2022-09-20T04:38:19;9.05;;;5.30;;
55015;SDS011;40919;43.236;21.590;2022-09-20T04:40:54;6.32;;;4.90;;
55015;SDS011;40919;43.236;21.590;2022-09-20T05:01:44;9.20;;;7.20;;
55015;SDS011;40919;43.236;21.590;2022-09-20T05:08:00;9.02;;;6.40;;
55015;SDS011;40919;43.236;21.590;2022-09-20T05:14:01;9.45;;;6.75;;
55015;SDS011;40919;43.236;21.590;2022-09-20T05:27:40;13.52;;;8.70;;
55015;SDS011;40919;43.236;21.590;2022-09-20T05:33:02;10.43;;;8.60;;
55015;SDS011;40919;43.236;21.590;2022-09-20T05:38:42;17.33;;;11.30;;
55015;SDS011;40919;43.236;21.590;2022-09-20T05:44:14;9.23;;;8.02;;
55015;SDS011;40919;43.236;21.590;2022-09-20T05:52:53;10.80;;;8.85;;
55015;SDS011;40919;43.236;21.590;2022-09-20T05:55:29;12.68;;;8.95;;
55015;SDS011;40919;43.236;21.590;2022-09-20T05:58:53;13.68;;;8.77;;
55015;SDS011;40919;43.236;21.590;2022-09-20T06:06:25;14.23;;;8.80;;
55015;SDS011;40919;43.236;21.590;2022-09-20T06:14:35;15.20;;;8.40;;
55015;SDS011;40919;43.236;21.590;2022-09-20T06:17:09;11.68;;;8.30;;
55015;SDS011;40919;43.236;21.590;2022-09-20T06:22:21;11.27;;;8.43;;
55015;SDS011;40919;43.236;21.590;2022-09-20T06:27:40;11.30;;;8.32;;
55015;SDS011;40919;43.236;21.590;2022-09-20T06:30:22;13.02;;;9.13;;
55015;SDS011;40919;43.236;21.590;2022-09-20T06:32:55;13.88;;;10.60;;
55015;SDS011;40919;43.236;21.590;2022-09-20T06:35:24;20.45;;;12.02;;
55015;SDS011;40919;43.236;21.590;2022-09-20T06:38:20;13.40;;;10.07;;
55015;SDS011;40919;43.236;21.590;2022-09-20T06:41:02;13.07;;;8.77;;
55015;SDS011;40919;43.236;21.590;2022-09-20T06:43:47;15.40;;;8.40;;
55015;SDS011;40919;43.236;21.590;2022-09-20T06:46:13;11.95;;;8.85;;
55015;SDS011;40919;43.236;21.590;2022-09-20T06:48:40;10.98;;;9.05;;
55015;SDS011;40919;43.236;21.590;2022-09-20T06:51:06;12.13;;;8.98;;
55015;SDS011;40919;43.236;21.590;2022-09-20T06:53:36;12.73;;;9.50;;
55015;SDS011;40919;43.236;21.590;2022-09-20T06:56:06;14.55;;;9.23;;
55015;SDS011;40919;43.236;21.590;2022-09-20T06:58:37;13.40;;;10.03;;
55015;SDS011;40919;43.236;21.590;2022-09-20T07:01:02;15.82;;;10.40;;
55015;SDS011;40919;43.236;21.590;2022-09-20T07:03:28;12.95;;;11.63;;
55015;SDS011;40919;43.236;21.590;2022-09-20T07:05:55;12.60;;;11.15;;
55015;SDS011;40919;43.236;21.590;2022-09-20T07:08:22;13.40;;;11.85;;
55015;SDS011;40919;43.236;21.590;2022-09-20T07:10:48;15.02;;;10.75;;
55015;SDS011;40919;43.236;21.590;2022-09-20T07:13:15;11.50;;;10.05;;
55015;SDS011;40919;43.236;21.590;2022-09-20T07:15:43;18.25;;;13.43;;
55015;SDS011;40919;43.236;21.590;2022-09-20T07:18:09;12.77;;;10.82;;
55015;SDS011;40919;43.236;21.590;2022-09-20T07:20:35;12.20;;;9.75;;
55015;SDS011;40919;43.236;21.590;2022-09-20T07:23:00;10.80;;;8.40;;
55015;SDS011;40919;43.236;21.590;2022-09-20T07:25:27;13.57;;;9.73;;
55015;SDS011;40919;43.236;21.590;2022-09-20T07:27:53;11.30;;;8.88;;
55015;SDS011;40919;43.236;21.590;2022-09-20T07:30:18;17.05;;;9.60;;
55015;SDS011;40919;43.236;21.590;2022-09-20T07:32:45;12.70;;;10.32;;
55015;SDS011;40919;43.236;21.590;2022-09-20T07:35:11;10.68;;;9.00;;
55015;SDS011;40919;43.236;21.590;2022-09-20T07:37:37;11.75;;;8.55;;
55015;SDS011;40919;43.236;21.590;2022-09-20T07:40:07;9.95;;;8.70;;
55015;SDS011;40919;43.236;21.590;2022-09-20T07:42:34;13.82;;;9.55;;
55015;SDS011;40919;43.236;21.590;2022-09-20T07:45:01;11.45;;;9.30;;
55015;SDS011;40919;43.236;21.590;2022-09-20T07:47:30;9.35;;;7.90;;
55015;SDS011;40919;43.236;21.590;2022-09-20T07:49:59;12.63;;;8.70;;
55015;SDS011;40919;43.236;21.590;2022-09-20T07:52:25;11.75;;;9.65;;
55015;SDS011;40919;43.236;21.590;2022-09-20T07:54:51;9.85;;;8.35;;
55015;SDS011;40919;43.236;21.590;2022-09-20T07:57:17;11.70;;;8.40;;
55015;SDS011;40919;43.236;21.590;2022-09-20T07:59:43;10.93;;;9.10;;
55015;SDS011;40919;43.236;21.590;2022-09-20T08:02:13;10.73;;;8.57;;
55015;SDS011;40919;43.236;21.590;2022-09-20T08:04:40;10.48;;;9.32;;
55015;SDS011;40919;43.236;21.590;2022-09-20T08:07:06;12.73;;;9.00;;
55015;SDS011;40919;43.236;21.590;2022-09-20T08:09:31;11.30;;;9.20;;
55015;SDS011;40919;43.236;21.590;2022-09-20T08:11:57;9.30;;;7.93;;
55015;SDS011;40919;43.236;21.590;2022-09-20T08:14:23;8.30;;;7.03;;
55015;SDS011;40919;43.236;21.590;2022-09-20T08:16:49;9.30;;;7.40;;
55015;SDS011;40919;43.236;21.590;2022-09-20T08:21:43;7.82;;;6.57;;
55015;SDS011;40919;43.236;21.590;2022-09-20T08:24:09;13.23;;;7.30;;
55015;SDS011;40919;43.236;21.590;2022-09-20T08:26:35;8.68;;;7.00;;
55015;SDS011;40919;43.236;21.590;2022-09-20T08:29:02;8.02;;;6.72;;
55015;SDS011;40919;43.236;21.590;2022-09-20T08:31:30;8.48;;;6.60;;
55015;SDS011;40919;43.236;21.590;2022-09-20T08:33:58;7.25;;;6.20;;
55015;SDS011;40919;43.236;21.590;2022-09-20T08:36:28;8.23;;;5.57;;
55015;SDS011;40919;43.236;21.590;2022-09-20T08:38:56;6.57;;;5.15;;
55015;SDS011;40919;43.236;21.590;2022-09-20T08:41:26;7.57;;;5.72;;
55015;SDS011;40919;43.236;21.590;2022-09-20T08:44:06;8.32;;;6.28;;
55015;SDS011;40919;43.236;21.590;2022-09-20T08:46:36;7.88;;;5.60;;
55015;SDS011;40919;43.236;21.590;2022-09-20T08:49:06;7.10;;;5.60;;
55015;SDS011;40919;43.236;21.590;2022-09-20T08:51:38;5.80;;;4.55;;
55015;SDS011;40919;43.236;21.590;2022-09-20T08:54:06;6.57;;;4.82;;
55015;SDS011;40919;43.236;21.590;2022-09-20T08:56:36;7.07;;;4.80;;
55015;SDS011;40919;43.236;21.590;2022-09-20T08:59:02;5.63;;;4.30;;
55015;SDS011;40919;43.236;21.590;2022-09-20T09:01:30;6.57;;;3.70;;
55015;SDS011;40919;43.236;21.590;2022-09-20T09:04:13;6.20;;;4.32;;
55015;SDS011;40919;43.236;21.590;2022-09-20T09:06:43;8.60;;;4.13;;
55015;SDS011;40919;43.236;21.590;2022-09-20T09:09:20;5.95;;;4.50;;
55015;SDS011;40919;43.236;21.590;2022-09-20T09:11:51;11.88;;;4.40;;
55015;SDS011;40919;43.236;21.590;2022-09-20T09:17:10;6.60;;;3.92;;
55015;SDS011;40919;43.236;21.590;2022-09-20T09:19:53;4.80;;;3.50;;
55015;SDS011;40919;43.236;21.590;2022-09-20T09:22:43;6.03;;;4.68;;
55015;SDS011;40919;43.236;21.590;2022-09-20T09:27:58;6.32;;;4.60;;
55015;SDS011;40919;43.236;21.590;2022-09-20T09:30:40;9.68;;;4.88;;
55015;SDS011;40919;43.236;21.590;2022-09-20T09:33:22;8.05;;;5.15;;
55015;SDS011;40919;43.236;21.590;2022-09-20T09:36:09;8.65;;;5.53;;
55015;SDS011;40919;43.236;21.590;2022-09-20T09:38:42;7.13;;;5.80;;
55015;SDS011;40919;43.236;21.590;2022-09-20T09:43:59;9.77;;;4.70;;
55015;SDS011;40919;43.236;21.590;2022-09-20T09:46:42;6.95;;;3.97;;
55015;SDS011;40919;43.236;21.590;2022-09-20T09:49:23;7.07;;;4.28;;
55015;SDS011;40919;43.236;21.590;2022-09-20T09:52:00;8.55;;;3.75;;
55015;SDS011;40919;43.236;21.590;2022-09-20T09:54:27;5.55;;;3.45;;
55015;SDS011;40919;43.236;21.590;2022-09-20T10:00:06;7.10;;;3.45;;
55015;SDS011;40919;43.236;21.590;2022-09-20T10:07:46;4.93;;;2.15;;
55015;SDS011;40919;43.236;21.590;2022-09-20T10:15:50;3.88;;;1.85;;
55015;SDS011;40919;43.236;21.590;2022-09-20T10:19:01;5.43;;;2.30;;
55015;SDS011;40919;43.236;21.590;2022-09-20T10:24:48;3.25;;;1.60;;
55015;SDS011;40919;43.236;21.590;2022-09-20T10:38:11;4.47;;;2.03;;
55015;SDS011;40919;43.236;21.590;2022-09-20T10:41:23;2.50;;;1.20;;
55015;SDS011;40919;43.236;21.590;2022-09-20T10:44:02;4.47;;;1.55;;
55015;SDS011;40919;43.236;21.590;2022-09-20T10:52:26;4.55;;;2.42;;
55015;SDS011;40919;43.236;21.590;2022-09-20T11:06:17;5.32;;;2.55;;
55015;SDS011;40919;43.236;21.590;2022-09-20T11:09:06;6.55;;;3.60;;
55015;SDS011;40919;43.236;21.590;2022-09-20T11:11:45;6.25;;;3.65;;
55015;SDS011;40919;43.236;21.590;2022-09-20T11:14:16;4.35;;;2.40;;
55015;SDS011;40919;43.236;21.590;2022-09-20T11:17:02;4.50;;;2.00;;
55015;SDS011;40919;43.236;21.590;2022-09-20T11:19:37;2.53;;;1.20;;
55015;SDS011;40919;43.236;21.590;2022-09-20T11:22:26;2.70;;;1.30;;
55015;SDS011;40919;43.236;21.590;2022-09-20T11:25:49;4.68;;;2.97;;
55015;SDS011;40919;43.236;21.590;2022-09-20T11:28:08;3.67;;;1.92;;
55015;SDS011;40919;43.236;21.590;2022-09-20T11:31:00;3.00;;;1.70;;
55015;SDS011;40919;43.236;21.590;2022-09-20T11:36:07;2.90;;;1.40;;
55015;SDS011;40919;43.236;21.590;2022-09-20T11:38:48;2.97;;;1.42;;
55015;SDS011;40919;43.236;21.590;2022-09-20T11:41:30;3.47;;;1.67;;
55015;SDS011;40919;43.236;21.590;2022-09-20T11:44:01;3.10;;;1.50;;
55015;SDS011;40919;43.236;21.590;2022-09-20T11:46:37;3.40;;;1.35;;
55015;SDS011;40919;43.236;21.590;2022-09-20T11:49:15;7.50;;;2.40;;
55015;SDS011;40919;43.236;21.590;2022-09-20T11:57:37;6.40;;;4.10;;
55015;SDS011;40919;43.236;21.590;2022-09-20T12:00:03;9.65;;;4.53;;
55015;SDS011;40919;43.236;21.590;2022-09-20T12:08:06;5.63;;;1.95;;
55015;SDS011;40919;43.236;21.590;2022-09-20T12:10:43;5.00;;;2.58;;
55015;SDS011;40919;43.236;21.590;2022-09-20T12:13:26;3.35;;;1.80;;
55015;SDS011;40919;43.236;21.590;2022-09-20T12:16:35;3.03;;;1.30;;
55015;SDS011;40919;43.236;21.590;2022-09-20T12:19:00;3.83;;;1.92;;
55015;SDS011;40919;43.236;21.590;2022-09-20T12:21:29;2.97;;;1.30;;
55015;SDS011;40919;43.236;21.590;2022-09-20T12:28:50;3.42;;;1.27;;
55015;SDS011;40919;43.236;21.590;2022-09-20T12:33:58;2.90;;;1.50;;
55015;SDS011;40919;43.236;21.590;2022-09-20T12:36:25;3.05;;;1.40;;
55015;SDS011;40919;43.236;21.590;2022-09-20T12:38:58;5.13;;;1.70;;
55015;SDS011;40919;43.236;21.590;2022-09-20T13:16:17;4.70;;;3.08;;
55015;SDS011;40919;43.236;21.590;2022-09-20T13:19:04;3.45;;;2.00;;
55015;SDS011;40919;43.236;21.590;2022-09-20T13:21:35;4.38;;;1.77;;
55015;SDS011;40919;43.236;21.590;2022-09-20T13:24:04;4.15;;;1.85;;
55015;SDS011;40919;43.236;21.590;2022-09-20T13:26:32;3.53;;;1.85;;
55015;SDS011;40919;43.236;21.590;2022-09-20T13:29:08;3.15;;;1.45;;
55015;SDS011;40919;43.236;21.590;2022-09-20T13:31:54;4.82;;;1.52;;
55015;SDS011;40919;43.236;21.590;2022-09-20T13:34:23;3.00;;;1.58;;
55015;SDS011;40919;43.236;21.590;2022-09-20T13:36:54;2.70;;;1.30;;
55015;SDS011;40919;43.236;21.590;2022-09-20T13:39:24;3.67;;;1.60;;
55015;SDS011;40919;43.236;21.590;2022-09-20T13:42:03;3.85;;;1.88;;
55015;SDS011;40919;43.236;21.590;2022-09-20T13:44:32;3.45;;;1.55;;
55015;SDS011;40919;43.236;21.590;2022-09-20T13:46:59;4.47;;;1.80;;
55015;SDS011;40919;43.236;21.590;2022-09-20T13:49:29;5.03;;;3.10;;
55015;SDS011;40919;43.236;21.590;2022-09-20T13:51:55;5.40;;;2.47;;
55015;SDS011;40919;43.236;21.590;2022-09-20T13:54:26;6.45;;;1.90;;
55015;SDS011;40919;43.236;21.590;2022-09-20T13:57:00;4.60;;;2.03;;
55015;SDS011;40919;43.236;21.590;2022-09-20T13:59:32;9.50;;;1.75;;
55015;SDS011;40919;43.236;21.590;2022-09-20T14:02:04;3.95;;;1.70;;
55015;SDS011;40919;43.236;21.590;2022-09-20T14:04:43;5.28;;;2.83;;
55015;SDS011;40919;43.236;21.590;2022-09-20T14:07:11;3.95;;;1.95;;
55015;SDS011;40919;43.236;21.590;2022-09-20T14:09:39;5.70;;;2.25;;
55015;SDS011;40919;43.236;21.590;2022-09-20T14:12:05;4.88;;;2.30;;
55015;SDS011;40919;43.236;21.590;2022-09-20T14:14:32;2.90;;;1.60;;
55015;SDS011;40919;43.236;21.590;2022-09-20T14:17:00;3.88;;;2.30;;
55015;SDS011;40919;43.236;21.590;2022-09-20T14:19:30;3.95;;;1.90;;
55015;SDS011;40919;43.236;21.590;2022-09-20T14:22:01;7.50;;;5.35;;
55015;SDS011;40919;43.236;21.590;2022-09-20T14:24:30;10.27;;;4.88;;
55015;SDS011;40919;43.236;21.590;2022-09-20T14:27:15;9.85;;;5.13;;
55015;SDS011;40919;43.236;21.590;2022-09-20T14:29:43;8.95;;;6.03;;
55015;SDS011;40919;43.236;21.590;2022-09-20T14:37:25;5.50;;;4.20;;
55015;SDS011;40919;43.236;21.590;2022-09-20T14:39:57;4.60;;;3.00;;
55015;SDS011;40919;43.236;21.590;2022-09-20T14:45:21;5.72;;;2.63;;
55015;SDS011;40919;43.236;21.590;2022-09-20T14:47:54;4.32;;;2.67;;
55015;SDS011;40919;43.236;21.590;2022-09-20T14:50:23;3.50;;;2.35;;
55015;SDS011;40919;43.236;21.590;2022-09-20T14:52:59;3.65;;;2.40;;
55015;SDS011;40919;43.236;21.590;2022-09-20T14:55:25;3.15;;;1.88;;
55015;SDS011;40919;43.236;21.590;2022-09-20T14:57:56;2.72;;;1.60;;
55015;SDS011;40919;43.236;21.590;2022-09-20T15:00:27;3.55;;;1.80;;
55015;SDS011;40919;43.236;21.590;2022-09-20T15:02:54;3.35;;;2.10;;
55015;SDS011;40919;43.236;21.590;2022-09-20T15:05:27;3.75;;;2.40;;
55015;SDS011;40919;43.236;21.590;2022-09-20T15:07:54;3.97;;;2.70;;
55015;SDS011;40919;43.236;21.590;2022-09-20T15:10:21;6.50;;;2.83;;
55015;SDS011;40919;43.236;21.590;2022-09-20T15:12:47;3.67;;;1.95;;
55015;SDS011;40919;43.236;21.590;2022-09-20T15:15:14;3.33;;;1.83;;
55015;SDS011;40919;43.236;21.590;2022-09-20T15:17:41;4.10;;;1.90;;
55015;SDS011;40919;43.236;21.590;2022-09-20T15:20:18;8.02;;;2.45;;
55015;SDS011;40919;43.236;21.590;2022-09-20T15:22:46;4.93;;;2.15;;
55015;SDS011;40919;43.236;21.590;2022-09-20T15:25:16;5.07;;;2.60;;
55015;SDS011;40919;43.236;21.590;2022-09-20T15:27:48;4.68;;;2.80;;
55015;SDS011;40919;43.236;21.590;2022-09-20T15:30:15;4.57;;;2.70;;
55015;SDS011;40919;43.236;21.590;2022-09-20T15:32:43;4.28;;;2.40;;
55015;SDS011;40919;43.236;21.590;2022-09-20T15:35:10;5.75;;;3.28;;
55015;SDS011;40919;43.236;21.590;2022-09-20T15:37:39;7.25;;;5.25;;
55015;SDS011;40919;43.236;21.590;2022-09-20T15:40:05;10.68;;;6.95;;
55015;SDS011;40919;43.236;21.590;2022-09-20T15:42:33;9.68;;;5.07;;
55015;SDS011;40919;43.236;21.590;2022-09-20T15:45:06;8.90;;;4.38;;
55015;SDS011;40919;43.236;21.590;2022-09-20T15:47:37;5.90;;;3.42;;
55015;SDS011;40919;43.236;21.590;2022-09-20T15:50:04;9.80;;;5.30;;
55015;SDS011;40919;43.236;21.590;2022-09-20T15:52:33;11.20;;;6.07;;
55015;SDS011;40919;43.236;21.590;2022-09-20T15:55:06;11.38;;;5.57;;
55015;SDS011;40919;43.236;21.590;2022-09-20T15:57:33;8.75;;;5.32;;
55015;SDS011;40919;43.236;21.590;2022-09-20T15:59:59;9.50;;;6.55;;
55015;SDS011;40919;43.236;21.590;2022-09-20T16:02:25;13.82;;;8.40;;
55015;SDS011;40919;43.236;21.590;2022-09-20T16:04:53;14.05;;;8.30;;
55015;SDS011;40919;43.236;21.590;2022-09-20T16:07:20;9.80;;;6.95;;
55015;SDS011;40919;43.236;21.590;2022-09-20T16:09:50;9.75;;;6.45;;
55015;SDS011;40919;43.236;21.590;2022-09-20T16:12:18;9.52;;;5.50;;
55015;SDS011;40919;43.236;21.590;2022-09-20T16:14:44;10.63;;;6.35;;
55015;SDS011;40919;43.236;21.590;2022-09-20T16:17:10;13.77;;;7.50;;
55015;SDS011;40919;43.236;21.590;2022-09-20T16:19:36;27.17;;;9.27;;
55015;SDS011;40919;43.236;21.590;2022-09-20T16:22:02;10.57;;;6.90;;
55015;SDS011;40919;43.236;21.590;2022-09-20T16:24:29;13.68;;;7.75;;
55015;SDS011;40919;43.236;21.590;2022-09-20T16:26:58;23.70;;;13.02;;
55015;SDS011;40919;43.236;21.590;2022-09-20T16:29:25;21.40;;;15.43;;
55015;SDS011;40919;43.236;21.590;2022-09-20T16:31:53;17.23;;;12.40;;
55015;SDS011;40919;43.236;21.590;2022-09-20T16:34:20;10.57;;;7.68;;
55015;SDS011;40919;43.236;21.590;2022-09-20T16:36:51;12.63;;;5.60;;
55015;SDS011;40919;43.236;21.590;2022-09-20T16:39:23;15.65;;;7.32;;
55015;SDS011;40919;43.236;21.590;2022-09-20T16:41:53;15.02;;;7.95;;
55015;SDS011;40919;43.236;21.590;2022-09-20T16:44:29;12.95;;;5.28;;
55015;SDS011;40919;43.236;21.590;2022-09-20T16:46:59;9.43;;;3.85;;
55015;SDS011;40919;43.236;21.590;2022-09-20T16:49:26;60.05;;;28.90;;
55015;SDS011;40919;43.236;21.590;2022-09-20T16:51:53;48.83;;;22.65;;
55015;SDS011;40919;43.236;21.590;2022-09-20T16:54:19;71.97;;;36.45;;
55015;SDS011;40919;43.236;21.590;2022-09-20T16:56:46;63.50;;;35.78;;
55015;SDS011;40919;43.236;21.590;2022-09-20T16:59:13;56.88;;;29.75;;
55015;SDS011;40919;43.236;21.590;2022-09-20T17:01:41;59.30;;;37.42;;
55015;SDS011;40919;43.236;21.590;2022-09-20T17:04:08;38.63;;;26.52;;
55015;SDS011;40919;43.236;21.590;2022-09-20T17:06:35;35.45;;;22.25;;
55015;SDS011;40919;43.236;21.590;2022-09-20T17:09:03;39.33;;;25.77;;
55015;SDS011;40919;43.236;21.590;2022-09-20T17:11:30;43.83;;;27.10;;
55015;SDS011;40919;43.236;21.590;2022-09-20T17:13:58;45.33;;;28.40;;
55015;SDS011;40919;43.236;21.590;2022-09-20T17:18:55;38.45;;;23.02;;
55015;SDS011;40919;43.236;21.590;2022-09-20T17:21:23;29.08;;;19.08;;
55015;SDS011;40919;43.236;21.590;2022-09-20T17:23:51;106.78;;;37.80;;
55015;SDS011;40919;43.236;21.590;2022-09-20T17:26:26;144.25;;;50.58;;
55015;SDS011;40919;43.236;21.590;2022-09-20T17:28:56;213.63;;;67.53;;
55015;SDS011;40919;43.236;21.590;2022-09-20T17:31:23;244.32;;;74.72;;
55015;SDS011;40919;43.236;21.590;2022-09-20T17:33:55;188.93;;;64.15;;
55015;SDS011;40919;43.236;21.590;2022-09-20T17:36:25;101.68;;;40.03;;
55015;SDS011;40919;43.236;21.590;2022-09-20T17:38:54;52.33;;;24.52;;
55015;SDS011;40919;43.236;21.590;2022-09-20T17:41:21;43.30;;;23.25;;
55015;SDS011;40919;43.236;21.590;2022-09-20T17:43:51;63.58;;;35.70;;
55015;SDS011;40919;43.236;21.590;2022-09-20T17:46:21;39.83;;;21.92;;
55015;SDS011;40919;43.236;21.590;2022-09-20T17:48:53;29.60;;;15.90;;
55015;SDS011;40919;43.236;21.590;2022-09-20T17:51:24;40.20;;;22.55;;
55015;SDS011;40919;43.236;21.590;2022-09-20T17:53:52;48.65;;;29.90;;
55015;SDS011;40919;43.236;21.590;2022-09-20T17:56:20;48.30;;;28.30;;
55015;SDS011;40919;43.236;21.590;2022-09-20T17:58:48;49.33;;;30.40;;
55015;SDS011;40919;43.236;21.590;2022-09-20T18:01:18;65.43;;;40.75;;
55015;SDS011;40919;43.236;21.590;2022-09-20T18:03:46;66.50;;;37.60;;
55015;SDS011;40919;43.236;21.590;2022-09-20T18:06:13;61.08;;;34.15;;
55015;SDS011;40919;43.236;21.590;2022-09-20T18:08:40;65.45;;;37.00;;
55015;SDS011;40919;43.236;21.590;2022-09-20T18:11:09;60.92;;;31.48;;
55015;SDS011;40919;43.236;21.590;2022-09-20T18:13:35;55.20;;;27.55;;
55015;SDS011;40919;43.236;21.590;2022-09-20T18:16:01;51.70;;;27.48;;
55015;SDS011;40919;43.236;21.590;2022-09-20T18:18:28;52.80;;;32.33;;
55015;SDS011;40919;43.236;21.590;2022-09-20T18:20:56;51.45;;;30.95;;
55015;SDS011;40919;43.236;21.590;2022-09-20T18:23:21;50.80;;;29.60;;
55015;SDS011;40919;43.236;21.590;2022-09-20T18:25:48;45.15;;;27.20;;
55015;SDS011;40919;43.236;21.590;2022-09-20T18:28:32;44.15;;;27.13;;
55015;SDS011;40919;43.236;21.590;2022-09-20T18:31:01;43.45;;;25.55;;
55015;SDS011;40919;43.236;21.590;2022-09-20T18:33:31;36.08;;;23.98;;
55015;SDS011;40919;43.236;21.590;2022-09-20T18:36:00;39.03;;;26.45;;
55015;SDS011;40919;43.236;21.590;2022-09-20T18:38:27;43.40;;;29.85;;
55015;SDS011;40919;43.236;21.590;2022-09-20T18:40:56;40.25;;;28.10;;
55015;SDS011;40919;43.236;21.590;2022-09-20T18:43:25;36.58;;;24.50;;
55015;SDS011;40919;43.236;21.590;2022-09-20T18:45:52;27.65;;;18.50;;
55015;SDS011;40919;43.236;21.590;2022-09-20T18:48:19;18.58;;;13.80;;
55015;SDS011;40919;43.236;21.590;2022-09-20T18:50:58;21.85;;;14.63;;
55015;SDS011;40919;43.236;21.590;2022-09-20T18:53:26;22.38;;;12.52;;
55015;SDS011;40919;43.236;21.590;2022-09-20T18:55:52;26.60;;;18.40;;
55015;SDS011;40919;43.236;21.590;2022-09-20T18:58:19;33.95;;;21.70;;
55015;SDS011;40919;43.236;21.590;2022-09-20T19:00:48;38.90;;;24.95;;
55015;SDS011;40919;43.236;21.590;2022-09-20T19:03:29;42.45;;;26.70;;
55015;SDS011;40919;43.236;21.590;2022-09-20T19:06:17;43.13;;;28.52;;
55015;SDS011;40919;43.236;21.590;2022-09-20T19:08:53;48.17;;;30.50;;
55015;SDS011;40919;43.236;21.590;2022-09-20T19:11:29;48.55;;;34.33;;
55015;SDS011;40919;43.236;21.590;2022-09-20T19:14:46;50.97;;;32.47;;
55015;SDS011;40919;43.236;21.590;2022-09-20T19:19:45;52.35;;;28.73;;
55015;SDS011;40919;43.236;21.590;2022-09-20T19:27:14;22.92;;;13.02;;
55015;SDS011;40919;43.236;21.590;2022-09-20T19:29:40;15.70;;;10.90;;
55015;SDS011;40919;43.236;21.590;2022-09-20T19:32:10;16.48;;;11.10;;
55015;SDS011;40919;43.236;21.590;2022-09-20T19:34:41;30.88;;;15.63;;
55015;SDS011;40919;43.236;21.590;2022-09-20T19:40:09;29.98;;;19.88;;
55015;SDS011;40919;43.236;21.590;2022-09-20T19:48:35;39.08;;;24.30;;
55015;SDS011;40919;43.236;21.590;2022-09-20T19:51:11;33.67;;;20.75;;
55015;SDS011;40919;43.236;21.590;2022-09-20T19:53:39;24.15;;;15.13;;
55015;SDS011;40919;43.236;21.590;2022-09-20T19:56:12;25.98;;;17.85;;
55015;SDS011;40919;43.236;21.590;2022-09-20T19:58:45;20.42;;;14.75;;
55015;SDS011;40919;43.236;21.590;2022-09-20T20:01:11;18.27;;;12.02;;
55015;SDS011;40919;43.236;21.590;2022-09-20T20:03:37;27.52;;;15.32;;
55015;SDS011;40919;43.236;21.590;2022-09-20T20:06:09;39.65;;;26.60;;
55015;SDS011;40919;43.236;21.590;2022-09-20T20:08:46;43.75;;;30.70;;
55015;SDS011;40919;43.236;21.590;2022-09-20T20:13:59;29.58;;;17.38;;
55015;SDS011;40919;43.236;21.590;2022-09-20T20:16:42;29.38;;;16.85;;